MMMXHKJK

Guest
Details From MMMX - Licenciado Benito Juarez Intl
To HKJK - Nairobi Jomo Kanyatta Intl
Flight Number -
Tags Generated
Created
Modified
Stats Distance 8,007 nm / 14,828 km
Max Altitude 0 ft / 0 m
Waypoints 6
Social Downloads 0
Likes 0
Share VATSIM

Download

Looking for another format? Having issues loading an existing format? Contact us
Advertisement - Login to hide

Notes

Generated

Route

MMMX EDGAR IKTAM BUN R1659 HKJK

ID Type Via Altitude Latitude Longitude Leg Dist Tot Dist Heading (true) Name
O MMMX APT - 0 ft / 0 m 19.42701˚ -99.08585˚ - 0 nm - -
EDGAR FIX - 0 ft / 0 m 22.17972˚ -88.12306˚ 637 nm 637 nm 73° / 77° -
IKTAM FIX - 0 ft / 0 m 10.57846˚ 10.60432˚ 5642 nm 6279 nm 77° / 113° -
BUN VOR - 0 ft / 0 m 1.56388˚ 30.21662˚ 1289 nm 7568 nm 114° / 116° BUNIA VOR
R1659 FIX - 0 ft / 0 m -1.32759˚ 36.91636˚ 438 nm 8006 nm 113° / 113° -
O HKJK APT - 0 ft / 0 m -1.32774˚ 36.91612˚ 0 nm 8006 nm 238° / 238° -

Altitude Profile

Advertisement - Login to hide

Weather


0- 5 10 15 20 25 30 35+ Temperature / ° C

Clouds and Precipitation
Forecast for 2018-05-22 18:00 UTC. Updated 4 hours ago

Ground ~20,000 ft ~40,000 ft Winds

MMMX

Details ICAO MMMX (MEX)
Name Licenciado Benito Juarez Intl
Region Mexico
Timezone America/Mexico_City (UTC-5.0)
Stats Elevation 7,316 ft / 2,230 m (AMSL)
Location 19.436308° -99.072104°
Runways 2
Magnetic Variation 4.598° E

METAR

MMMX 222047Z 27004KT 7SM SCT020 SCT080 BKN200 27/06 A3019 NOSIG RMK SLP031 57022 904 8/232 HZY TCU E

Decode

TAF

Not found

Departure Runways

ID Width Length Bearing (true) Bearing (mag) Surface Threshold Offset Overrun Length
05L 148 ft / 45 m 12,951 ft / 3,948 m 59.25° 54.65° Asphalt 1,033 ft / 315 m 0 ft / 0 m
05R 148 ft / 45 m 12,800 ft / 3,902 m 59.26° 54.66° Asphalt 1,493 ft / 455 m 0 ft / 0 m
23L 148 ft / 45 m 12,800 ft / 3,902 m 239.28° 234.68° Asphalt 0 ft / 0 m 200 ft / 61 m
23R 148 ft / 45 m 12,951 ft / 3,948 m 239.27° 234.67° Asphalt 1,640 ft / 500 m 0 ft / 0 m

HKJK

Details ICAO HKJK (NBO)
Name Nairobi Jomo Kanyatta Intl
Region Kenya
Timezone Africa/Nairobi (UTC+3.0)
Stats Elevation 5,330 ft / 1,625 m (AMSL)
Location -1.317073° 36.930757°
Runways 1
Magnetic Variation 0.591° E

METAR

HKJK 222100Z 00000KT 9999 SCT019 BKN090 17/16 Q1024

Decode

TAF

TAF HKJK 221700Z 2218/2324 04008KT 9999 SHRA FEW019CB SCT022 BKN080 BECMG 2300/2303 14008KT SCT019 BKN080

Decode

Destination Runways

ID Width Length Bearing (true) Bearing (mag) Surface Threshold Offset Overrun Length
06 148 ft / 45 m 13,215 ft / 4,028 m 53.90° 53.31° Asphalt 0 ft / 0 m 194 ft / 59 m
24 148 ft / 45 m 13,215 ft / 4,028 m 233.90° 233.31° Asphalt 0 ft / 0 m 197 ft / 60 m

Approach Navaids

Runway Type Ident Frequency Range Bearing (true) Bearing (mag) Slope Elevation
06 Localiser INL 110.30 MHz 18 nm / 33 km 53.84° 53.25° - 5,278 ft / 1,609 m (AMSL)
06 Glidescope INL 110.30 MHz 10 nm / 19 km 53.90° 53.31° 3.00° 5,343 ft / 1,629 m (AMSL)